sensor_id;sensor_type;location;lat;lon;timestamp;P1;durP1;ratioP1;P2;durP2;ratioP2
68386;SDS011;55338;43.062;25.624;2023-01-23T00:02:18;33.50;;;11.43;;
68386;SDS011;55338;43.062;25.624;2023-01-23T00:04:44;23.40;;;9.68;;
68386;SDS011;55338;43.062;25.624;2023-01-23T00:07:10;68.80;;;16.23;;
68386;SDS011;55338;43.062;25.624;2023-01-23T00:09:36;55.83;;;11.50;;
68386;SDS011;55338;43.062;25.624;2023-01-23T00:12:02;61.63;;;13.27;;
68386;SDS011;55338;43.062;25.624;2023-01-23T00:15:01;21.92;;;10.43;;
68386;SDS011;55338;43.062;25.624;2023-01-23T00:17:59;34.97;;;10.63;;
68386;SDS011;55338;43.062;25.624;2023-01-23T00:20:57;36.42;;;10.35;;
68386;SDS011;55338;43.062;25.624;2023-01-23T00:23:23;37.47;;;10.65;;
68386;SDS011;55338;43.062;25.624;2023-01-23T00:25:49;46.00;;;12.43;;
68386;SDS011;55338;43.062;25.624;2023-01-23T00:28:14;42.90;;;11.63;;
68386;SDS011;55338;43.062;25.624;2023-01-23T00:30:40;44.38;;;11.15;;
68386;SDS011;55338;43.062;25.624;2023-01-23T00:33:06;48.35;;;10.52;;
68386;SDS011;55338;43.062;25.624;2023-01-23T00:35:33;74.93;;;11.93;;
68386;SDS011;55338;43.062;25.624;2023-01-23T00:37:59;30.08;;;9.32;;
68386;SDS011;55338;43.062;25.624;2023-01-23T00:40:25;42.00;;;10.05;;
68386;SDS011;55338;43.062;25.624;2023-01-23T00:42:50;93.47;;;13.70;;
68386;SDS011;55338;43.062;25.624;2023-01-23T00:45:17;85.32;;;12.98;;
68386;SDS011;55338;43.062;25.624;2023-01-23T00:47:43;47.45;;;12.32;;
68386;SDS011;55338;43.062;25.624;2023-01-23T00:50:09;135.90;;;13.73;;
68386;SDS011;55338;43.062;25.624;2023-01-23T00:52:35;75.80;;;12.70;;
68386;SDS011;55338;43.062;25.624;2023-01-23T00:55:33;47.13;;;9.88;;
68386;SDS011;55338;43.062;25.624;2023-01-23T00:58:31;23.63;;;10.10;;
68386;SDS011;55338;43.062;25.624;2023-01-23T01:01:29;49.60;;;11.68;;
68386;SDS011;55338;43.062;25.624;2023-01-23T01:03:56;48.13;;;12.13;;
68386;SDS011;55338;43.062;25.624;2023-01-23T01:06:23;54.40;;;12.73;;
68386;SDS011;55338;43.062;25.624;2023-01-23T01:08:49;125.90;;;14.27;;
68386;SDS011;55338;43.062;25.624;2023-01-23T01:11:15;78.15;;;13.80;;
68386;SDS011;55338;43.062;25.624;2023-01-23T01:13:42;56.78;;;13.00;;
68386;SDS011;55338;43.062;25.624;2023-01-23T01:16:08;137.43;;;17.10;;
68386;SDS011;55338;43.062;25.624;2023-01-23T01:18:35;71.85;;;15.35;;
68386;SDS011;55338;43.062;25.624;2023-01-23T01:21:04;46.90;;;11.43;;
68386;SDS011;55338;43.062;25.624;2023-01-23T01:23:31;26.83;;;10.07;;
68386;SDS011;55338;43.062;25.624;2023-01-23T01:25:57;22.70;;;9.40;;
68386;SDS011;55338;43.062;25.624;2023-01-23T01:28:56;52.88;;;9.32;;
68386;SDS011;55338;43.062;25.624;2023-01-23T01:31:54;54.38;;;9.73;;
68386;SDS011;55338;43.062;25.624;2023-01-23T01:34:20;32.50;;;8.07;;
68386;SDS011;55338;43.062;25.624;2023-01-23T01:36:45;32.83;;;9.60;;
68386;SDS011;55338;43.062;25.624;2023-01-23T01:39:11;19.25;;;8.90;;
68386;SDS011;55338;43.062;25.624;2023-01-23T01:41:37;19.27;;;8.17;;
68386;SDS011;55338;43.062;25.624;2023-01-23T01:44:03;16.27;;;7.97;;
68386;SDS011;55338;43.062;25.624;2023-01-23T01:46:29;18.07;;;8.13;;
68386;SDS011;55338;43.062;25.624;2023-01-23T01:51:48;19.67;;;8.25;;
68386;SDS011;55338;43.062;25.624;2023-01-23T01:54:25;18.02;;;7.45;;
68386;SDS011;55338;43.062;25.624;2023-01-23T01:57:04;16.70;;;7.68;;
68386;SDS011;55338;43.062;25.624;2023-01-23T02:00:27;13.97;;;6.73;;
68386;SDS011;55338;43.062;25.624;2023-01-23T02:03:06;14.65;;;7.25;;
68386;SDS011;55338;43.062;25.624;2023-01-23T02:05:33;19.38;;;7.55;;
68386;SDS011;55338;43.062;25.624;2023-01-23T02:08:12;13.85;;;6.43;;
68386;SDS011;55338;43.062;25.624;2023-01-23T02:10:44;12.95;;;6.53;;
68386;SDS011;55338;43.062;25.624;2023-01-23T02:15:45;11.95;;;6.68;;
68386;SDS011;55338;43.062;25.624;2023-01-23T02:18:12;14.73;;;7.20;;
68386;SDS011;55338;43.062;25.624;2023-01-23T02:20:38;12.10;;;6.57;;
68386;SDS011;55338;43.062;25.624;2023-01-23T02:23:16;14.93;;;6.50;;
68386;SDS011;55338;43.062;25.624;2023-01-23T02:26:04;11.65;;;6.15;;
68386;SDS011;55338;43.062;25.624;2023-01-23T02:28:44;13.13;;;6.25;;
68386;SDS011;55338;43.062;25.624;2023-01-23T02:31:44;13.02;;;6.88;;
68386;SDS011;55338;43.062;25.624;2023-01-23T02:34:43;15.07;;;6.13;;
68386;SDS011;55338;43.062;25.624;2023-01-23T02:37:41;10.75;;;5.60;;
68386;SDS011;55338;43.062;25.624;2023-01-23T02:40:11;12.10;;;5.90;;
68386;SDS011;55338;43.062;25.624;2023-01-23T02:42:38;13.27;;;7.50;;
68386;SDS011;55338;43.062;25.624;2023-01-23T02:45:07;14.90;;;6.50;;
68386;SDS011;55338;43.062;25.624;2023-01-23T02:47:33;13.80;;;6.82;;
68386;SDS011;55338;43.062;25.624;2023-01-23T02:49:59;13.00;;;6.78;;
68386;SDS011;55338;43.062;25.624;2023-01-23T02:52:25;13.48;;;6.60;;
68386;SDS011;55338;43.062;25.624;2023-01-23T02:54:51;17.77;;;6.20;;
68386;SDS011;55338;43.062;25.624;2023-01-23T02:57:16;14.98;;;5.57;;
68386;SDS011;55338;43.062;25.624;2023-01-23T03:00:14;13.23;;;6.53;;
68386;SDS011;55338;43.062;25.624;2023-01-23T03:02:40;14.68;;;6.75;;
68386;SDS011;55338;43.062;25.624;2023-01-23T03:05:06;15.98;;;6.28;;
68386;SDS011;55338;43.062;25.624;2023-01-23T03:07:32;14.77;;;7.45;;
68386;SDS011;55338;43.062;25.624;2023-01-23T03:09:58;14.68;;;6.80;;
68386;SDS011;55338;43.062;25.624;2023-01-23T03:12:24;14.95;;;7.18;;
68386;SDS011;55338;43.062;25.624;2023-01-23T03:14:50;15.60;;;7.07;;
68386;SDS011;55338;43.062;25.624;2023-01-23T03:17:19;24.58;;;8.60;;
68386;SDS011;55338;43.062;25.624;2023-01-23T03:20:17;16.75;;;8.27;;
68386;SDS011;55338;43.062;25.624;2023-01-23T03:23:15;14.63;;;7.75;;
68386;SDS011;55338;43.062;25.624;2023-01-23T03:25:42;14.82;;;6.65;;
68386;SDS011;55338;43.062;25.624;2023-01-23T03:28:09;14.32;;;6.20;;
68386;SDS011;55338;43.062;25.624;2023-01-23T03:30:53;14.02;;;6.78;;
68386;SDS011;55338;43.062;25.624;2023-01-23T03:33:19;13.43;;;7.00;;
68386;SDS011;55338;43.062;25.624;2023-01-23T03:35:45;16.37;;;7.77;;
68386;SDS011;55338;43.062;25.624;2023-01-23T03:38:10;13.60;;;6.57;;
68386;SDS011;55338;43.062;25.624;2023-01-23T03:40:38;13.95;;;6.88;;
68386;SDS011;55338;43.062;25.624;2023-01-23T03:43:22;16.90;;;6.40;;
68386;SDS011;55338;43.062;25.624;2023-01-23T03:45:48;15.45;;;6.80;;
68386;SDS011;55338;43.062;25.624;2023-01-23T03:48:13;13.90;;;6.77;;
68386;SDS011;55338;43.062;25.624;2023-01-23T03:50:39;12.02;;;6.38;;
68386;SDS011;55338;43.062;25.624;2023-01-23T03:53:05;13.75;;;6.95;;
68386;SDS011;55338;43.062;25.624;2023-01-23T03:55:31;15.43;;;6.87;;
68386;SDS011;55338;43.062;25.624;2023-01-23T04:05:30;15.32;;;7.47;;
68386;SDS011;55338;43.062;25.624;2023-01-23T04:07:55;15.15;;;7.25;;
68386;SDS011;55338;43.062;25.624;2023-01-23T04:10:21;14.67;;;7.37;;
68386;SDS011;55338;43.062;25.624;2023-01-23T04:12:47;15.98;;;7.57;;
68386;SDS011;55338;43.062;25.624;2023-01-23T04:15:12;13.85;;;6.82;;
68386;SDS011;55338;43.062;25.624;2023-01-23T04:17:38;19.55;;;7.68;;
68386;SDS011;55338;43.062;25.624;2023-01-23T04:20:04;14.77;;;7.82;;
68386;SDS011;55338;43.062;25.624;2023-01-23T04:22:30;18.20;;;7.72;;
68386;SDS011;55338;43.062;25.624;2023-01-23T04:24:56;15.13;;;7.88;;
68386;SDS011;55338;43.062;25.624;2023-01-23T04:27:21;15.67;;;7.50;;
68386;SDS011;55338;43.062;25.624;2023-01-23T04:30:19;13.27;;;7.35;;
68386;SDS011;55338;43.062;25.624;2023-01-23T04:33:18;18.42;;;6.88;;
68386;SDS011;55338;43.062;25.624;2023-01-23T04:38:20;18.38;;;7.53;;
68386;SDS011;55338;43.062;25.624;2023-01-23T04:40:47;16.17;;;7.65;;
68386;SDS011;55338;43.062;25.624;2023-01-23T04:43:14;20.55;;;7.57;;
68386;SDS011;55338;43.062;25.624;2023-01-23T04:45:40;16.75;;;7.25;;
68386;SDS011;55338;43.062;25.624;2023-01-23T04:48:06;18.53;;;8.00;;
68386;SDS011;55338;43.062;25.624;2023-01-23T04:51:04;14.02;;;7.25;;
68386;SDS011;55338;43.062;25.624;2023-01-23T04:53:29;17.33;;;7.65;;
68386;SDS011;55338;43.062;25.624;2023-01-23T04:55:55;15.67;;;6.77;;
68386;SDS011;55338;43.062;25.624;2023-01-23T04:58:21;13.93;;;6.45;;
68386;SDS011;55338;43.062;25.624;2023-01-23T05:01:19;18.85;;;7.45;;
68386;SDS011;55338;43.062;25.624;2023-01-23T05:03:48;13.95;;;6.82;;
68386;SDS011;55338;43.062;25.624;2023-01-23T05:06:14;17.05;;;6.50;;
68386;SDS011;55338;43.062;25.624;2023-01-23T05:08:39;19.80;;;7.32;;
68386;SDS011;55338;43.062;25.624;2023-01-23T05:11:05;15.50;;;6.63;;
68386;SDS011;55338;43.062;25.624;2023-01-23T05:13:31;23.45;;;7.18;;
68386;SDS011;55338;43.062;25.624;2023-01-23T05:16:29;20.10;;;6.55;;
68386;SDS011;55338;43.062;25.624;2023-01-23T05:18:55;22.00;;;7.20;;
68386;SDS011;55338;43.062;25.624;2023-01-23T05:21:21;17.10;;;6.75;;
68386;SDS011;55338;43.062;25.624;2023-01-23T05:23:46;19.40;;;6.17;;
68386;SDS011;55338;43.062;25.624;2023-01-23T05:26:12;13.60;;;6.47;;
68386;SDS011;55338;43.062;25.624;2023-01-23T05:29:10;19.10;;;6.53;;
68386;SDS011;55338;43.062;25.624;2023-01-23T05:32:08;14.88;;;6.50;;
68386;SDS011;55338;43.062;25.624;2023-01-23T05:34:34;18.88;;;6.30;;
68386;SDS011;55338;43.062;25.624;2023-01-23T05:37:00;13.83;;;6.17;;
68386;SDS011;55338;43.062;25.624;2023-01-23T05:39:26;24.70;;;7.28;;
68386;SDS011;55338;43.062;25.624;2023-01-23T05:41:52;15.05;;;6.32;;
68386;SDS011;55338;43.062;25.624;2023-01-23T05:44:17;11.47;;;5.63;;
68386;SDS011;55338;43.062;25.624;2023-01-23T05:47:18;13.25;;;6.38;;
68386;SDS011;55338;43.062;25.624;2023-01-23T05:49:46;14.15;;;5.75;;
68386;SDS011;55338;43.062;25.624;2023-01-23T05:52:12;16.40;;;6.00;;
68386;SDS011;55338;43.062;25.624;2023-01-23T05:54:38;13.35;;;6.15;;
68386;SDS011;55338;43.062;25.624;2023-01-23T05:57:03;11.50;;;5.22;;
68386;SDS011;55338;43.062;25.624;2023-01-23T06:00:02;13.63;;;5.37;;
68386;SDS011;55338;43.062;25.624;2023-01-23T06:03:01;13.68;;;6.65;;
68386;SDS011;55338;43.062;25.624;2023-01-23T06:05:27;17.92;;;6.57;;
68386;SDS011;55338;43.062;25.624;2023-01-23T06:07:53;19.33;;;6.75;;
68386;SDS011;55338;43.062;25.624;2023-01-23T06:10:19;18.00;;;6.53;;
68386;SDS011;55338;43.062;25.624;2023-01-23T06:12:45;20.92;;;7.35;;
68386;SDS011;55338;43.062;25.624;2023-01-23T06:15:10;124.13;;;37.73;;
68386;SDS011;55338;43.062;25.624;2023-01-23T06:17:36;148.23;;;44.25;;
68386;SDS011;55338;43.062;25.624;2023-01-23T06:20:34;107.75;;;33.15;;
68386;SDS011;55338;43.062;25.624;2023-01-23T06:23:00;58.72;;;20.27;;
68386;SDS011;55338;43.062;25.624;2023-01-23T06:25:26;31.60;;;12.07;;
68386;SDS011;55338;43.062;25.624;2023-01-23T06:27:51;33.45;;;12.48;;
68386;SDS011;55338;43.062;25.624;2023-01-23T06:30:17;26.20;;;11.07;;
68386;SDS011;55338;43.062;25.624;2023-01-23T06:32:43;25.48;;;9.93;;
68386;SDS011;55338;43.062;25.624;2023-01-23T06:35:09;29.85;;;10.77;;
68386;SDS011;55338;43.062;25.624;2023-01-23T06:37:35;48.83;;;17.93;;
68386;SDS011;55338;43.062;25.624;2023-01-23T06:40:01;79.45;;;25.95;;
68386;SDS011;55338;43.062;25.624;2023-01-23T06:42:26;77.50;;;24.10;;
68386;SDS011;55338;43.062;25.624;2023-01-23T06:44:52;74.68;;;23.05;;
68386;SDS011;55338;43.062;25.624;2023-01-23T06:47:18;35.33;;;13.50;;
68386;SDS011;55338;43.062;25.624;2023-01-23T06:50:16;31.73;;;11.48;;
68386;SDS011;55338;43.062;25.624;2023-01-23T06:53:16;32.22;;;11.23;;
68386;SDS011;55338;43.062;25.624;2023-01-23T06:55:42;29.83;;;11.95;;
68386;SDS011;55338;43.062;25.624;2023-01-23T06:58:09;34.17;;;13.47;;
68386;SDS011;55338;43.062;25.624;2023-01-23T07:00:35;44.70;;;15.20;;
68386;SDS011;55338;43.062;25.624;2023-01-23T07:03:01;30.58;;;13.30;;
68386;SDS011;55338;43.062;25.624;2023-01-23T07:05:34;29.65;;;11.00;;
68386;SDS011;55338;43.062;25.624;2023-01-23T07:08:03;27.35;;;11.82;;
68386;SDS011;55338;43.062;25.624;2023-01-23T07:10:30;33.17;;;11.35;;
68386;SDS011;55338;43.062;25.624;2023-01-23T07:12:56;27.55;;;11.75;;
68386;SDS011;55338;43.062;25.624;2023-01-23T07:15:22;26.80;;;10.85;;
68386;SDS011;55338;43.062;25.624;2023-01-23T07:17:47;26.33;;;9.80;;
68386;SDS011;55338;43.062;25.624;2023-01-23T07:20:13;26.77;;;9.65;;
68386;SDS011;55338;43.062;25.624;2023-01-23T07:22:39;24.10;;;9.30;;
68386;SDS011;55338;43.062;25.624;2023-01-23T07:25:07;23.63;;;9.55;;
68386;SDS011;55338;43.062;25.624;2023-01-23T07:27:33;34.40;;;10.25;;
68386;SDS011;55338;43.062;25.624;2023-01-23T07:29:58;32.55;;;10.43;;
68386;SDS011;55338;43.062;25.624;2023-01-23T07:32:24;20.33;;;8.75;;
68386;SDS011;55338;43.062;25.624;2023-01-23T07:34:50;24.48;;;9.70;;
68386;SDS011;55338;43.062;25.624;2023-01-23T07:37:17;24.88;;;8.50;;
68386;SDS011;55338;43.062;25.624;2023-01-23T07:39:43;29.95;;;9.05;;
68386;SDS011;55338;43.062;25.624;2023-01-23T07:42:09;21.48;;;8.40;;
68386;SDS011;55338;43.062;25.624;2023-01-23T07:44:35;19.90;;;8.38;;
68386;SDS011;55338;43.062;25.624;2023-01-23T07:47:01;25.00;;;7.82;;
68386;SDS011;55338;43.062;25.624;2023-01-23T07:49:27;22.65;;;7.68;;
68386;SDS011;55338;43.062;25.624;2023-01-23T07:51:53;25.47;;;8.70;;
68386;SDS011;55338;43.062;25.624;2023-01-23T07:54:30;24.08;;;7.65;;
68386;SDS011;55338;43.062;25.624;2023-01-23T07:56:55;18.65;;;7.70;;
68386;SDS011;55338;43.062;25.624;2023-01-23T07:59:21;17.83;;;8.70;;
68386;SDS011;55338;43.062;25.624;2023-01-23T08:01:47;19.35;;;8.40;;
68386;SDS011;55338;43.062;25.624;2023-01-23T08:04:15;14.13;;;6.60;;
68386;SDS011;55338;43.062;25.624;2023-01-23T08:06:40;14.57;;;6.67;;
68386;SDS011;55338;43.062;25.624;2023-01-23T08:09:06;12.88;;;5.88;;
68386;SDS011;55338;43.062;25.624;2023-01-23T08:11:32;9.75;;;4.93;;
68386;SDS011;55338;43.062;25.624;2023-01-23T08:13:58;10.40;;;4.30;;
68386;SDS011;55338;43.062;25.624;2023-01-23T08:16:24;11.50;;;4.30;;
68386;SDS011;55338;43.062;25.624;2023-01-23T08:18:50;10.18;;;4.28;;
68386;SDS011;55338;43.062;25.624;2023-01-23T08:21:15;9.70;;;4.63;;
68386;SDS011;55338;43.062;25.624;2023-01-23T08:23:42;9.23;;;3.78;;
68386;SDS011;55338;43.062;25.624;2023-01-23T08:26:15;10.13;;;4.40;;
68386;SDS011;55338;43.062;25.624;2023-01-23T08:28:42;11.82;;;4.35;;
68386;SDS011;55338;43.062;25.624;2023-01-23T08:31:09;11.18;;;4.40;;
68386;SDS011;55338;43.062;25.624;2023-01-23T08:33:37;10.27;;;4.30;;
68386;SDS011;55338;43.062;25.624;2023-01-23T08:36:03;10.63;;;4.20;;
68386;SDS011;55338;43.062;25.624;2023-01-23T08:38:31;9.75;;;3.92;;
68386;SDS011;55338;43.062;25.624;2023-01-23T08:40:58;8.23;;;3.80;;
68386;SDS011;55338;43.062;25.624;2023-01-23T08:43:57;10.70;;;3.60;;
68386;SDS011;55338;43.062;25.624;2023-01-23T08:46:26;9.57;;;4.47;;
68386;SDS011;55338;43.062;25.624;2023-01-23T08:48:53;8.55;;;3.97;;
68386;SDS011;55338;43.062;25.624;2023-01-23T08:51:19;13.55;;;4.07;;
68386;SDS011;55338;43.062;25.624;2023-01-23T08:53:45;7.95;;;3.70;;
68386;SDS011;55338;43.062;25.624;2023-01-23T08:56:13;10.13;;;3.80;;
68386;SDS011;55338;43.062;25.624;2023-01-23T08:58:40;10.65;;;3.58;;
68386;SDS011;55338;43.062;25.624;2023-01-23T09:01:10;8.82;;;3.70;;
68386;SDS011;55338;43.062;25.624;2023-01-23T09:03:36;9.98;;;3.35;;
68386;SDS011;55338;43.062;25.624;2023-01-23T09:06:03;7.07;;;3.33;;
68386;SDS011;55338;43.062;25.624;2023-01-23T09:08:29;6.85;;;3.30;;
68386;SDS011;55338;43.062;25.624;2023-01-23T09:10:59;8.23;;;3.42;;
68386;SDS011;55338;43.062;25.624;2023-01-23T09:13:25;9.20;;;3.65;;
68386;SDS011;55338;43.062;25.624;2023-01-23T09:15:52;10.23;;;3.80;;
68386;SDS011;55338;43.062;25.624;2023-01-23T09:18:17;8.77;;;3.33;;
68386;SDS011;55338;43.062;25.624;2023-01-23T09:20:44;7.07;;;3.45;;
68386;SDS011;55338;43.062;25.624;2023-01-23T09:23:10;8.83;;;3.37;;
68386;SDS011;55338;43.062;25.624;2023-01-23T09:25:36;5.95;;;2.80;;
68386;SDS011;55338;43.062;25.624;2023-01-23T09:28:02;7.97;;;3.53;;
68386;SDS011;55338;43.062;25.624;2023-01-23T09:30:28;9.25;;;3.60;;
68386;SDS011;55338;43.062;25.624;2023-01-23T09:32:54;10.40;;;4.05;;
68386;SDS011;55338;43.062;25.624;2023-01-23T09:35:20;7.80;;;3.70;;
68386;SDS011;55338;43.062;25.624;2023-01-23T09:37:48;7.50;;;3.83;;
68386;SDS011;55338;43.062;25.624;2023-01-23T09:40:24;7.85;;;4.00;;
68386;SDS011;55338;43.062;25.624;2023-01-23T09:42:58;12.20;;;4.65;;
68386;SDS011;55338;43.062;25.624;2023-01-23T09:45:39;19.17;;;5.22;;
68386;SDS011;55338;43.062;25.624;2023-01-23T09:48:22;9.20;;;4.32;;
68386;SDS011;55338;43.062;25.624;2023-01-23T09:57:57;10.68;;;4.60;;
68386;SDS011;55338;43.062;25.624;2023-01-23T10:00:31;9.40;;;4.30;;
68386;SDS011;55338;43.062;25.624;2023-01-23T10:03:01;11.77;;;4.63;;
68386;SDS011;55338;43.062;25.624;2023-01-23T10:14:22;6.50;;;3.17;;
68386;SDS011;55338;43.062;25.624;2023-01-23T10:25:54;10.07;;;3.97;;
68386;SDS011;55338;43.062;25.624;2023-01-23T10:28:27;8.55;;;3.67;;
68386;SDS011;55338;43.062;25.624;2023-01-23T10:30:59;9.32;;;3.70;;
68386;SDS011;55338;43.062;25.624;2023-01-23T10:39:07;9.73;;;3.93;;
68386;SDS011;55338;43.062;25.624;2023-01-23T10:41:37;9.50;;;4.32;;
68386;SDS011;55338;43.062;25.624;2023-01-23T10:44:13;7.32;;;3.53;;
68386;SDS011;55338;43.062;25.624;2023-01-23T10:47:01;11.57;;;3.35;;
68386;SDS011;55338;43.062;25.624;2023-01-23T10:49:36;8.53;;;3.40;;
68386;SDS011;55338;43.062;25.624;2023-01-23T10:52:27;8.43;;;3.70;;
68386;SDS011;55338;43.062;25.624;2023-01-23T10:55:04;10.20;;;4.50;;
68386;SDS011;55338;43.062;25.624;2023-01-23T10:57:55;10.20;;;3.83;;
68386;SDS011;55338;43.062;25.624;2023-01-23T11:00:35;9.43;;;3.78;;
68386;SDS011;55338;43.062;25.624;2023-01-23T11:06:05;9.60;;;3.35;;
68386;SDS011;55338;43.062;25.624;2023-01-23T11:08:34;8.68;;;3.70;;
68386;SDS011;55338;43.062;25.624;2023-01-23T11:13:41;8.02;;;3.55;;
68386;SDS011;55338;43.062;25.624;2023-01-23T11:16:16;9.93;;;4.30;;
68386;SDS011;55338;43.062;25.624;2023-01-23T11:19:03;9.98;;;4.03;;
68386;SDS011;55338;43.062;25.624;2023-01-23T11:21:50;9.52;;;4.25;;
68386;SDS011;55338;43.062;25.624;2023-01-23T11:27:31;9.52;;;4.28;;
68386;SDS011;55338;43.062;25.624;2023-01-23T11:30:30;9.23;;;3.80;;
68386;SDS011;55338;43.062;25.624;2023-01-23T11:34:01;12.95;;;3.28;;
68386;SDS011;55338;43.062;25.624;2023-01-23T11:39:03;8.77;;;3.83;;
68386;SDS011;55338;43.062;25.624;2023-01-23T11:41:41;13.20;;;3.72;;
68386;SDS011;55338;43.062;25.624;2023-01-23T11:44:11;11.23;;;4.23;;
68386;SDS011;55338;43.062;25.624;2023-01-23T12:04:13;8.25;;;2.92;;
68386;SDS011;55338;43.062;25.624;2023-01-23T12:07:17;10.45;;;3.63;;
68386;SDS011;55338;43.062;25.624;2023-01-23T12:26:15;8.75;;;3.90;;
68386;SDS011;55338;43.062;25.624;2023-01-23T12:40:55;9.70;;;3.80;;
68386;SDS011;55338;43.062;25.624;2023-01-23T12:43:53;11.45;;;3.78;;
68386;SDS011;55338;43.062;25.624;2023-01-23T12:46:49;10.63;;;4.50;;
68386;SDS011;55338;43.062;25.624;2023-01-23T12:52:01;12.05;;;4.00;;
68386;SDS011;55338;43.062;25.624;2023-01-23T12:54:36;9.95;;;3.85;;
68386;SDS011;55338;43.062;25.624;2023-01-23T12:57:08;10.43;;;3.58;;
68386;SDS011;55338;43.062;25.624;2023-01-23T13:02:32;10.48;;;3.42;;
68386;SDS011;55338;43.062;25.624;2023-01-23T13:05:12;10.88;;;3.65;;
68386;SDS011;55338;43.062;25.624;2023-01-23T13:07:57;9.85;;;4.10;;
68386;SDS011;55338;43.062;25.624;2023-01-23T13:10:36;12.90;;;3.28;;
68386;SDS011;55338;43.062;25.624;2023-01-23T13:13:23;9.98;;;3.85;;
68386;SDS011;55338;43.062;25.624;2023-01-23T13:16:00;10.52;;;4.22;;
68386;SDS011;55338;43.062;25.624;2023-01-23T13:18:30;9.52;;;3.22;;
68386;SDS011;55338;43.062;25.624;2023-01-23T13:21:15;10.98;;;4.03;;
68386;SDS011;55338;43.062;25.624;2023-01-23T13:24:48;17.65;;;4.05;;
68386;SDS011;55338;43.062;25.624;2023-01-23T13:27:37;11.68;;;4.55;;
68386;SDS011;55338;43.062;25.624;2023-01-23T13:32:51;13.60;;;4.13;;
68386;SDS011;55338;43.062;25.624;2023-01-23T13:50:07;12.95;;;3.97;;
68386;SDS011;55338;43.062;25.624;2023-01-23T13:52:46;12.43;;;4.07;;
68386;SDS011;55338;43.062;25.624;2023-01-23T13:55:38;10.65;;;4.15;;
68386;SDS011;55338;43.062;25.624;2023-01-23T13:58:25;10.60;;;4.20;;
68386;SDS011;55338;43.062;25.624;2023-01-23T14:00:57;12.25;;;3.90;;
68386;SDS011;55338;43.062;25.624;2023-01-23T14:03:53;9.45;;;4.13;;
68386;SDS011;55338;43.062;25.624;2023-01-23T14:06:40;9.18;;;3.63;;
68386;SDS011;55338;43.062;25.624;2023-01-23T14:09:19;14.75;;;4.45;;
68386;SDS011;55338;43.062;25.624;2023-01-23T14:11:47;12.55;;;4.40;;
68386;SDS011;55338;43.062;25.624;2023-01-23T14:14:20;10.48;;;3.58;;
68386;SDS011;55338;43.062;25.624;2023-01-23T14:17:04;11.27;;;4.05;;
68386;SDS011;55338;43.062;25.624;2023-01-23T14:19:31;11.02;;;4.05;;
68386;SDS011;55338;43.062;25.624;2023-01-23T14:21:58;11.35;;;3.70;;
68386;SDS011;55338;43.062;25.624;2023-01-23T14:24:44;13.63;;;3.33;;
68386;SDS011;55338;43.062;25.624;2023-01-23T14:27:19;9.57;;;3.22;;
68386;SDS011;55338;43.062;25.624;2023-01-23T14:29:56;9.98;;;3.40;;
68386;SDS011;55338;43.062;25.624;2023-01-23T14:32:25;12.25;;;3.80;;
68386;SDS011;55338;43.062;25.624;2023-01-23T14:34:54;12.23;;;4.47;;
68386;SDS011;55338;43.062;25.624;2023-01-23T14:37:20;11.47;;;3.97;;
68386;SDS011;55338;43.062;25.624;2023-01-23T14:39:47;9.55;;;4.22;;
68386;SDS011;55338;43.062;25.624;2023-01-23T14:42:28;10.27;;;3.40;;
68386;SDS011;55338;43.062;25.624;2023-01-23T14:44:57;11.43;;;4.13;;
68386;SDS011;55338;43.062;25.624;2023-01-23T14:49:57;9.10;;;3.67;;
68386;SDS011;55338;43.062;25.624;2023-01-23T14:52:26;8.85;;;3.55;;
68386;SDS011;55338;43.062;25.624;2023-01-23T14:54:53;12.38;;;4.10;;
68386;SDS011;55338;43.062;25.624;2023-01-23T14:57:23;8.60;;;3.58;;
68386;SDS011;55338;43.062;25.624;2023-01-23T15:00:21;10.90;;;4.60;;
68386;SDS011;55338;43.062;25.624;2023-01-23T15:02:48;13.57;;;3.97;;
68386;SDS011;55338;43.062;25.624;2023-01-23T15:05:27;11.10;;;4.03;;
68386;SDS011;55338;43.062;25.624;2023-01-23T15:10:49;10.38;;;3.97;;
68386;SDS011;55338;43.062;25.624;2023-01-23T15:16:00;11.75;;;3.70;;
68386;SDS011;55338;43.062;25.624;2023-01-23T15:18:32;8.15;;;3.60;;
68386;SDS011;55338;43.062;25.624;2023-01-23T15:24:30;11.23;;;4.05;;
68386;SDS011;55338;43.062;25.624;2023-01-23T15:26:57;9.50;;;3.73;;
68386;SDS011;55338;43.062;25.624;2023-01-23T15:29:28;9.85;;;3.95;;
68386;SDS011;55338;43.062;25.624;2023-01-23T15:31:55;11.18;;;3.95;;
68386;SDS011;55338;43.062;25.624;2023-01-23T15:34:31;12.60;;;3.40;;
68386;SDS011;55338;43.062;25.624;2023-01-23T15:37:05;10.80;;;4.30;;
68386;SDS011;55338;43.062;25.624;2023-01-23T15:39:55;10.10;;;3.30;;
68386;SDS011;55338;43.062;25.624;2023-01-23T15:42:27;10.98;;;3.80;;
68386;SDS011;55338;43.062;25.624;2023-01-23T15:44:55;10.45;;;3.75;;
68386;SDS011;55338;43.062;25.624;2023-01-23T15:47:25;11.30;;;3.63;;
68386;SDS011;55338;43.062;25.624;2023-01-23T15:49:52;12.57;;;3.72;;
68386;SDS011;55338;43.062;25.624;2023-01-23T15:52:26;8.30;;;2.93;;
68386;SDS011;55338;43.062;25.624;2023-01-23T15:55:10;9.00;;;3.00;;
68386;SDS011;55338;43.062;25.624;2023-01-23T15:57:36;8.25;;;3.30;;
68386;SDS011;55338;43.062;25.624;2023-01-23T16:00:12;10.50;;;3.30;;
68386;SDS011;55338;43.062;25.624;2023-01-23T16:03:14;7.70;;;2.63;;
68386;SDS011;55338;43.062;25.624;2023-01-23T16:05:39;10.20;;;3.72;;
68386;SDS011;55338;43.062;25.624;2023-01-23T16:08:11;9.90;;;3.72;;
68386;SDS011;55338;43.062;25.624;2023-01-23T16:10:44;11.52;;;3.88;;
68386;SDS011;55338;43.062;25.624;2023-01-23T16:13:14;10.40;;;3.13;;
68386;SDS011;55338;43.062;25.624;2023-01-23T16:15:40;9.18;;;3.53;;
68386;SDS011;55338;43.062;25.624;2023-01-23T16:18:06;11.18;;;4.13;;
68386;SDS011;55338;43.062;25.624;2023-01-23T16:20:38;10.87;;;3.23;;
68386;SDS011;55338;43.062;25.624;2023-01-23T16:25:45;10.77;;;3.53;;
68386;SDS011;55338;43.062;25.624;2023-01-23T16:28:12;11.43;;;3.83;;
68386;SDS011;55338;43.062;25.624;2023-01-23T16:30:42;14.10;;;3.88;;
68386;SDS011;55338;43.062;25.624;2023-01-23T16:33:08;9.00;;;3.88;;
68386;SDS011;55338;43.062;25.624;2023-01-23T16:35:34;8.15;;;3.17;;
68386;SDS011;55338;43.062;25.624;2023-01-23T16:38:11;10.25;;;3.78;;
68386;SDS011;55338;43.062;25.624;2023-01-23T16:40:52;9.43;;;3.90;;
68386;SDS011;55338;43.062;25.624;2023-01-23T16:43:20;12.05;;;3.65;;
68386;SDS011;55338;43.062;25.624;2023-01-23T16:45:47;9.30;;;3.80;;
68386;SDS011;55338;43.062;25.624;2023-01-23T16:48:12;11.13;;;4.15;;
68386;SDS011;55338;43.062;25.624;2023-01-23T16:50:40;10.73;;;4.03;;
68386;SDS011;55338;43.062;25.624;2023-01-23T16:55:50;11.50;;;3.92;;
68386;SDS011;55338;43.062;25.624;2023-01-23T16:58:19;9.75;;;3.47;;
68386;SDS011;55338;43.062;25.624;2023-01-23T17:00:48;9.88;;;3.95;;
68386;SDS011;55338;43.062;25.624;2023-01-23T17:03:21;14.98;;;4.10;;
68386;SDS011;55338;43.062;25.624;2023-01-23T17:05:50;12.55;;;4.10;;
68386;SDS011;55338;43.062;25.624;2023-01-23T17:08:20;14.68;;;4.25;;
68386;SDS011;55338;43.062;25.624;2023-01-23T17:10:49;12.43;;;3.97;;
68386;SDS011;55338;43.062;25.624;2023-01-23T17:13:23;11.10;;;3.60;;
68386;SDS011;55338;43.062;25.624;2023-01-23T17:15:51;13.75;;;4.25;;
68386;SDS011;55338;43.062;25.624;2023-01-23T17:18:26;9.05;;;3.60;;